sensor_id;sensor_type;location;lat;lon;timestamp;P1;durP1;ratioP1;P2;durP2;ratioP2
79399;SDS011;68856;45.586;10.264;2023-05-14T00:00:14;1.60;;;1.50;;
79399;SDS011;68856;45.586;10.264;2023-05-14T00:02:40;4.63;;;1.40;;
79399;SDS011;68856;45.586;10.264;2023-05-14T00:05:07;1.08;;;1.00;;
79399;SDS011;68856;45.586;10.264;2023-05-14T00:07:34;1.48;;;1.38;;
79399;SDS011;68856;45.586;10.264;2023-05-14T00:10:00;1.58;;;1.38;;
79399;SDS011;68856;45.586;10.264;2023-05-14T00:12:26;3.63;;;1.27;;
79399;SDS011;68856;45.586;10.264;2023-05-14T00:14:54;4.28;;;2.03;;
79399;SDS011;68856;45.586;10.264;2023-05-14T00:17:20;2.88;;;1.10;;
79399;SDS011;68856;45.586;10.264;2023-05-14T00:19:47;1.30;;;1.20;;
79399;SDS011;68856;45.586;10.264;2023-05-14T00:22:13;1.85;;;1.40;;
79399;SDS011;68856;45.586;10.264;2023-05-14T00:24:40;2.15;;;1.73;;
79399;SDS011;68856;45.586;10.264;2023-05-14T00:27:06;2.65;;;1.40;;
79399;SDS011;68856;45.586;10.264;2023-05-14T00:29:33;3.88;;;1.30;;
79399;SDS011;68856;45.586;10.264;2023-05-14T00:32:00;3.08;;;1.23;;
79399;SDS011;68856;45.586;10.264;2023-05-14T00:34:27;4.88;;;2.45;;
79399;SDS011;68856;45.586;10.264;2023-05-14T00:36:53;2.38;;;1.75;;
79399;SDS011;68856;45.586;10.264;2023-05-14T00:39:19;1.50;;;1.20;;
79399;SDS011;68856;45.586;10.264;2023-05-14T00:41:46;1.92;;;1.27;;
79399;SDS011;68856;45.586;10.264;2023-05-14T00:44:12;2.13;;;1.33;;
79399;SDS011;68856;45.586;10.264;2023-05-14T00:46:38;7.40;;;2.00;;
79399;SDS011;68856;45.586;10.264;2023-05-14T00:49:04;1.48;;;1.25;;
79399;SDS011;68856;45.586;10.264;2023-05-14T00:51:31;1.70;;;1.60;;
79399;SDS011;68856;45.586;10.264;2023-05-14T00:53:58;1.95;;;1.48;;
79399;SDS011;68856;45.586;10.264;2023-05-14T00:56:24;3.10;;;1.40;;
79399;SDS011;68856;45.586;10.264;2023-05-14T00:58:51;1.60;;;1.00;;
79399;SDS011;68856;45.586;10.264;2023-05-14T01:01:18;1.60;;;1.20;;
79399;SDS011;68856;45.586;10.264;2023-05-14T01:03:44;2.92;;;1.63;;
79399;SDS011;68856;45.586;10.264;2023-05-14T01:09:25;3.47;;;1.58;;
79399;SDS011;68856;45.586;10.264;2023-05-14T01:12:01;2.50;;;1.58;;
79399;SDS011;68856;45.586;10.264;2023-05-14T01:17:36;2.30;;;1.50;;
79399;SDS011;68856;45.586;10.264;2023-05-14T01:20:07;1.92;;;1.30;;
79399;SDS011;68856;45.586;10.264;2023-05-14T01:22:33;2.65;;;1.23;;
79399;SDS011;68856;45.586;10.264;2023-05-14T01:25:00;3.00;;;1.50;;
79399;SDS011;68856;45.586;10.264;2023-05-14T01:30:36;2.35;;;1.75;;
79399;SDS011;68856;45.586;10.264;2023-05-14T01:33:05;1.75;;;1.38;;
79399;SDS011;68856;45.586;10.264;2023-05-14T01:35:36;3.30;;;1.20;;
79399;SDS011;68856;45.586;10.264;2023-05-14T01:38:03;5.45;;;1.40;;
79399;SDS011;68856;45.586;10.264;2023-05-14T01:40:33;2.53;;;1.35;;
79399;SDS011;68856;45.586;10.264;2023-05-14T01:43:01;1.25;;;1.23;;
79399;SDS011;68856;45.586;10.264;2023-05-14T01:45:29;1.48;;;1.38;;
79399;SDS011;68856;45.586;10.264;2023-05-14T01:47:56;1.30;;;1.20;;
79399;SDS011;68856;45.586;10.264;2023-05-14T01:50:22;1.33;;;1.23;;
79399;SDS011;68856;45.586;10.264;2023-05-14T01:52:48;1.30;;;1.20;;
79399;SDS011;68856;45.586;10.264;2023-05-14T01:55:17;1.00;;;1.00;;
79399;SDS011;68856;45.586;10.264;2023-05-14T01:57:43;2.42;;;1.30;;
79399;SDS011;68856;45.586;10.264;2023-05-14T02:00:10;2.03;;;1.15;;
79399;SDS011;68856;45.586;10.264;2023-05-14T02:02:36;3.22;;;1.65;;
79399;SDS011;68856;45.586;10.264;2023-05-14T02:05:03;3.28;;;1.35;;
79399;SDS011;68856;45.586;10.264;2023-05-14T02:07:29;2.58;;;1.13;;
79399;SDS011;68856;45.586;10.264;2023-05-14T02:09:55;3.90;;;1.25;;
79399;SDS011;68856;45.586;10.264;2023-05-14T02:12:22;2.65;;;1.13;;
79399;SDS011;68856;45.586;10.264;2023-05-14T02:14:48;1.48;;;1.10;;
79399;SDS011;68856;45.586;10.264;2023-05-14T02:17:14;3.15;;;1.20;;
79399;SDS011;68856;45.586;10.264;2023-05-14T02:19:42;2.78;;;1.08;;
79399;SDS011;68856;45.586;10.264;2023-05-14T02:22:08;0.98;;;0.75;;
79399;SDS011;68856;45.586;10.264;2023-05-14T02:24:35;2.83;;;1.42;;
79399;SDS011;68856;45.586;10.264;2023-05-14T02:27:01;1.58;;;1.10;;
79399;SDS011;68856;45.586;10.264;2023-05-14T02:29:27;2.33;;;1.25;;
79399;SDS011;68856;45.586;10.264;2023-05-14T02:31:54;2.67;;;1.05;;
79399;SDS011;68856;45.586;10.264;2023-05-14T02:34:21;1.50;;;1.25;;
79399;SDS011;68856;45.586;10.264;2023-05-14T02:36:47;0.98;;;0.98;;
79399;SDS011;68856;45.586;10.264;2023-05-14T02:39:13;4.13;;;1.30;;
79399;SDS011;68856;45.586;10.264;2023-05-14T02:41:40;1.35;;;1.25;;
79399;SDS011;68856;45.586;10.264;2023-05-14T02:44:06;2.88;;;1.35;;
79399;SDS011;68856;45.586;10.264;2023-05-14T02:46:33;1.55;;;1.10;;
79399;SDS011;68856;45.586;10.264;2023-05-14T02:48:59;1.10;;;1.10;;
79399;SDS011;68856;45.586;10.264;2023-05-14T02:51:26;1.58;;;1.13;;
79399;SDS011;68856;45.586;10.264;2023-05-14T02:53:53;1.50;;;1.23;;
79399;SDS011;68856;45.586;10.264;2023-05-14T02:56:19;2.28;;;1.40;;
79399;SDS011;68856;45.586;10.264;2023-05-14T02:58:46;3.17;;;1.40;;
79399;SDS011;68856;45.586;10.264;2023-05-14T03:01:12;0.95;;;0.85;;
79399;SDS011;68856;45.586;10.264;2023-05-14T03:03:38;1.20;;;1.10;;
79399;SDS011;68856;45.586;10.264;2023-05-14T03:06:05;1.17;;;1.08;;
79399;SDS011;68856;45.586;10.264;2023-05-14T03:08:31;0.88;;;0.88;;
79399;SDS011;68856;45.586;10.264;2023-05-14T03:10:57;2.17;;;1.17;;
79399;SDS011;68856;45.586;10.264;2023-05-14T03:13:23;0.98;;;0.90;;
79399;SDS011;68856;45.586;10.264;2023-05-14T03:15:50;1.38;;;1.27;;
79399;SDS011;68856;45.586;10.264;2023-05-14T03:18:18;3.17;;;1.10;;
79399;SDS011;68856;45.586;10.264;2023-05-14T03:20:45;1.35;;;1.25;;
79399;SDS011;68856;45.586;10.264;2023-05-14T03:23:12;2.05;;;1.00;;
79399;SDS011;68856;45.586;10.264;2023-05-14T03:25:39;1.27;;;0.90;;
79399;SDS011;68856;45.586;10.264;2023-05-14T03:28:05;1.90;;;1.45;;
79399;SDS011;68856;45.586;10.264;2023-05-14T03:30:31;0.93;;;0.90;;
79399;SDS011;68856;45.586;10.264;2023-05-14T03:32:57;0.95;;;0.95;;
79399;SDS011;68856;45.586;10.264;2023-05-14T03:35:24;2.17;;;1.13;;
79399;SDS011;68856;45.586;10.264;2023-05-14T03:37:50;1.42;;;1.20;;
79399;SDS011;68856;45.586;10.264;2023-05-14T03:40:17;2.22;;;1.13;;
79399;SDS011;68856;45.586;10.264;2023-05-14T03:42:43;1.75;;;1.10;;
79399;SDS011;68856;45.586;10.264;2023-05-14T03:45:09;2.53;;;1.00;;
79399;SDS011;68856;45.586;10.264;2023-05-14T03:47:36;0.95;;;0.80;;
79399;SDS011;68856;45.586;10.264;2023-05-14T03:50:02;0.90;;;0.90;;
79399;SDS011;68856;45.586;10.264;2023-05-14T03:52:28;3.53;;;1.20;;
79399;SDS011;68856;45.586;10.264;2023-05-14T03:54:54;1.83;;;1.10;;
79399;SDS011;68856;45.586;10.264;2023-05-14T03:57:21;3.90;;;0.80;;
79399;SDS011;68856;45.586;10.264;2023-05-14T03:59:47;3.70;;;1.65;;
79399;SDS011;68856;45.586;10.264;2023-05-14T04:02:13;0.90;;;0.90;;
79399;SDS011;68856;45.586;10.264;2023-05-14T04:04:39;0.85;;;0.85;;
79399;SDS011;68856;45.586;10.264;2023-05-14T04:07:06;1.95;;;0.93;;
79399;SDS011;68856;45.586;10.264;2023-05-14T04:09:33;2.47;;;1.35;;
79399;SDS011;68856;45.586;10.264;2023-05-14T04:11:59;0.82;;;0.70;;
79399;SDS011;68856;45.586;10.264;2023-05-14T04:14:25;1.10;;;1.00;;
79399;SDS011;68856;45.586;10.264;2023-05-14T04:16:52;1.33;;;1.15;;
79399;SDS011;68856;45.586;10.264;2023-05-14T04:19:18;2.28;;;1.20;;
79399;SDS011;68856;45.586;10.264;2023-05-14T04:21:44;3.53;;;1.52;;
79399;SDS011;68856;45.586;10.264;2023-05-14T04:24:10;1.27;;;0.90;;
79399;SDS011;68856;45.586;10.264;2023-05-14T04:26:37;1.05;;;0.95;;
79399;SDS011;68856;45.586;10.264;2023-05-14T04:29:03;2.58;;;1.10;;
79399;SDS011;68856;45.586;10.264;2023-05-14T04:31:29;0.73;;;0.73;;
79399;SDS011;68856;45.586;10.264;2023-05-14T04:33:56;1.13;;;1.00;;
79399;SDS011;68856;45.586;10.264;2023-05-14T04:36:22;1.00;;;0.80;;
79399;SDS011;68856;45.586;10.264;2023-05-14T04:38:48;3.92;;;1.00;;
79399;SDS011;68856;45.586;10.264;2023-05-14T04:41:15;1.83;;;1.17;;
79399;SDS011;68856;45.586;10.264;2023-05-14T04:43:42;0.95;;;0.95;;
79399;SDS011;68856;45.586;10.264;2023-05-14T04:46:08;0.98;;;0.98;;
79399;SDS011;68856;45.586;10.264;2023-05-14T04:48:34;3.20;;;1.20;;
79399;SDS011;68856;45.586;10.264;2023-05-14T04:51:01;1.33;;;1.00;;
79399;SDS011;68856;45.586;10.264;2023-05-14T04:53:27;2.22;;;1.25;;
79399;SDS011;68856;45.586;10.264;2023-05-14T04:55:53;1.25;;;1.15;;
79399;SDS011;68856;45.586;10.264;2023-05-14T04:58:19;1.67;;;1.25;;
79399;SDS011;68856;45.586;10.264;2023-05-14T05:00:47;1.40;;;1.30;;
79399;SDS011;68856;45.586;10.264;2023-05-14T05:03:14;1.90;;;1.80;;
79399;SDS011;68856;45.586;10.264;2023-05-14T05:05:40;1.70;;;1.60;;
79399;SDS011;68856;45.586;10.264;2023-05-14T05:08:06;2.05;;;1.80;;
79399;SDS011;68856;45.586;10.264;2023-05-14T05:10:33;1.50;;;1.27;;
79399;SDS011;68856;45.586;10.264;2023-05-14T05:12:59;1.38;;;1.27;;
79399;SDS011;68856;45.586;10.264;2023-05-14T05:15:25;2.13;;;1.48;;
79399;SDS011;68856;45.586;10.264;2023-05-14T05:17:51;4.15;;;0.95;;
79399;SDS011;68856;45.586;10.264;2023-05-14T05:20:18;3.08;;;2.10;;
79399;SDS011;68856;45.586;10.264;2023-05-14T05:22:44;2.50;;;1.33;;
79399;SDS011;68856;45.586;10.264;2023-05-14T05:25:10;2.60;;;1.40;;
79399;SDS011;68856;45.586;10.264;2023-05-14T05:27:37;1.85;;;1.30;;
79399;SDS011;68856;45.586;10.264;2023-05-14T05:30:03;3.95;;;1.65;;
79399;SDS011;68856;45.586;10.264;2023-05-14T05:32:30;1.38;;;1.27;;
79399;SDS011;68856;45.586;10.264;2023-05-14T05:34:56;1.92;;;1.10;;
79399;SDS011;68856;45.586;10.264;2023-05-14T05:37:23;1.42;;;1.33;;
79399;SDS011;68856;45.586;10.264;2023-05-14T05:39:49;1.50;;;1.40;;
79399;SDS011;68856;45.586;10.264;2023-05-14T05:42:15;2.88;;;1.25;;
79399;SDS011;68856;45.586;10.264;2023-05-14T05:44:42;3.20;;;2.95;;
79399;SDS011;68856;45.586;10.264;2023-05-14T05:47:08;3.90;;;1.30;;
79399;SDS011;68856;45.586;10.264;2023-05-14T05:49:34;3.03;;;1.83;;
79399;SDS011;68856;45.586;10.264;2023-05-14T05:52:02;2.47;;;1.58;;
79399;SDS011;68856;45.586;10.264;2023-05-14T05:54:29;2.92;;;2.20;;
79399;SDS011;68856;45.586;10.264;2023-05-14T05:56:58;2.53;;;1.70;;
79399;SDS011;68856;45.586;10.264;2023-05-14T05:59:24;3.03;;;1.60;;
79399;SDS011;68856;45.586;10.264;2023-05-14T06:01:51;2.47;;;1.25;;
79399;SDS011;68856;45.586;10.264;2023-05-14T06:04:17;2.40;;;1.40;;
79399;SDS011;68856;45.586;10.264;2023-05-14T06:06:44;1.42;;;1.20;;
79399;SDS011;68856;45.586;10.264;2023-05-14T06:09:10;1.30;;;1.20;;
79399;SDS011;68856;45.586;10.264;2023-05-14T06:11:37;1.48;;;1.25;;
79399;SDS011;68856;45.586;10.264;2023-05-14T06:14:03;1.65;;;1.35;;
79399;SDS011;68856;45.586;10.264;2023-05-14T06:16:29;2.40;;;1.10;;
79399;SDS011;68856;45.586;10.264;2023-05-14T06:18:56;1.23;;;1.13;;
79399;SDS011;68856;45.586;10.264;2023-05-14T06:21:22;1.20;;;1.10;;
79399;SDS011;68856;45.586;10.264;2023-05-14T06:23:48;2.40;;;1.63;;
79399;SDS011;68856;45.586;10.264;2023-05-14T06:26:14;1.55;;;1.20;;
79399;SDS011;68856;45.586;10.264;2023-05-14T06:28:41;1.17;;;1.00;;
79399;SDS011;68856;45.586;10.264;2023-05-14T06:31:07;1.30;;;1.13;;
79399;SDS011;68856;45.586;10.264;2023-05-14T06:33:33;2.53;;;1.10;;
79399;SDS011;68856;45.586;10.264;2023-05-14T06:36:02;1.83;;;1.13;;
79399;SDS011;68856;45.586;10.264;2023-05-14T06:38:29;2.77;;;1.30;;
79399;SDS011;68856;45.586;10.264;2023-05-14T06:40:56;2.70;;;1.20;;
79399;SDS011;68856;45.586;10.264;2023-05-14T06:43:22;0.95;;;0.95;;
79399;SDS011;68856;45.586;10.264;2023-05-14T06:45:49;2.80;;;0.90;;
79399;SDS011;68856;45.586;10.264;2023-05-14T06:48:16;1.60;;;0.98;;
79399;SDS011;68856;45.586;10.264;2023-05-14T06:50:43;1.00;;;0.88;;
79399;SDS011;68856;45.586;10.264;2023-05-14T06:53:10;1.63;;;0.90;;
79399;SDS011;68856;45.586;10.264;2023-05-14T06:55:36;2.20;;;1.10;;
79399;SDS011;68856;45.586;10.264;2023-05-14T06:58:04;1.33;;;1.10;;
79399;SDS011;68856;45.586;10.264;2023-05-14T07:00:31;0.88;;;0.88;;
79399;SDS011;68856;45.586;10.264;2023-05-14T07:02:57;1.77;;;1.05;;
79399;SDS011;68856;45.586;10.264;2023-05-14T07:05:24;1.67;;;0.80;;
79399;SDS011;68856;45.586;10.264;2023-05-14T07:07:50;1.00;;;1.00;;
79399;SDS011;68856;45.586;10.264;2023-05-14T07:10:16;3.17;;;1.30;;
79399;SDS011;68856;45.586;10.264;2023-05-14T07:12:43;1.75;;;1.10;;
79399;SDS011;68856;45.586;10.264;2023-05-14T07:15:09;1.40;;;1.30;;
79399;SDS011;68856;45.586;10.264;2023-05-14T07:17:36;1.88;;;1.40;;
79399;SDS011;68856;45.586;10.264;2023-05-14T07:20:02;1.88;;;1.00;;
79399;SDS011;68856;45.586;10.264;2023-05-14T07:22:29;1.42;;;1.05;;
79399;SDS011;68856;45.586;10.264;2023-05-14T07:24:55;1.27;;;0.90;;
79399;SDS011;68856;45.586;10.264;2023-05-14T07:27:21;1.95;;;1.50;;
79399;SDS011;68856;45.586;10.264;2023-05-14T07:29:48;1.10;;;1.00;;
79399;SDS011;68856;45.586;10.264;2023-05-14T07:32:15;2.30;;;1.20;;
79399;SDS011;68856;45.586;10.264;2023-05-14T07:34:41;1.65;;;1.30;;
79399;SDS011;68856;45.586;10.264;2023-05-14T07:37:07;3.70;;;1.20;;
79399;SDS011;68856;45.586;10.264;2023-05-14T07:39:33;5.68;;;1.55;;
79399;SDS011;68856;45.586;10.264;2023-05-14T07:42:00;1.83;;;1.08;;
79399;SDS011;68856;45.586;10.264;2023-05-14T07:44:26;1.55;;;1.38;;
79399;SDS011;68856;45.586;10.264;2023-05-14T07:46:53;2.95;;;2.03;;
79399;SDS011;68856;45.586;10.264;2023-05-14T07:49:19;1.75;;;1.65;;
79399;SDS011;68856;45.586;10.264;2023-05-14T07:51:45;2.80;;;1.73;;
79399;SDS011;68856;45.586;10.264;2023-05-14T07:54:11;3.92;;;1.90;;
79399;SDS011;68856;45.586;10.264;2023-05-14T07:56:38;1.50;;;1.40;;
79399;SDS011;68856;45.586;10.264;2023-05-14T07:59:04;2.03;;;1.83;;
79399;SDS011;68856;45.586;10.264;2023-05-14T08:01:33;2.00;;;1.70;;
79399;SDS011;68856;45.586;10.264;2023-05-14T08:03:59;1.90;;;1.65;;
79399;SDS011;68856;45.586;10.264;2023-05-14T08:06:26;3.10;;;2.55;;
79399;SDS011;68856;45.586;10.264;2023-05-14T08:08:53;5.25;;;2.28;;
79399;SDS011;68856;45.586;10.264;2023-05-14T08:11:19;2.90;;;2.53;;
79399;SDS011;68856;45.586;10.264;2023-05-14T08:13:46;2.50;;;2.30;;
79399;SDS011;68856;45.586;10.264;2023-05-14T08:16:12;2.92;;;2.70;;
79399;SDS011;68856;45.586;10.264;2023-05-14T08:18:39;3.33;;;3.03;;
79399;SDS011;68856;45.586;10.264;2023-05-14T08:21:05;2.95;;;2.53;;
79399;SDS011;68856;45.586;10.264;2023-05-14T08:23:31;4.57;;;2.90;;
79399;SDS011;68856;45.586;10.264;2023-05-14T08:25:57;3.20;;;2.90;;
79399;SDS011;68856;45.586;10.264;2023-05-14T08:28:24;5.47;;;4.25;;
79399;SDS011;68856;45.586;10.264;2023-05-14T08:30:50;2.65;;;2.45;;
79399;SDS011;68856;45.586;10.264;2023-05-14T08:33:16;4.18;;;3.00;;
79399;SDS011;68856;45.586;10.264;2023-05-14T08:35:43;2.90;;;2.58;;
79399;SDS011;68856;45.586;10.264;2023-05-14T08:38:09;3.15;;;2.85;;
79399;SDS011;68856;45.586;10.264;2023-05-14T08:40:35;2.95;;;2.75;;
79399;SDS011;68856;45.586;10.264;2023-05-14T08:43:02;3.40;;;2.25;;
79399;SDS011;68856;45.586;10.264;2023-05-14T08:45:30;3.40;;;2.60;;
79399;SDS011;68856;45.586;10.264;2023-05-14T08:47:58;2.58;;;2.38;;
79399;SDS011;68856;45.586;10.264;2023-05-14T08:50:29;2.90;;;2.70;;
79399;SDS011;68856;45.586;10.264;2023-05-14T08:52:56;4.10;;;2.53;;
79399;SDS011;68856;45.586;10.264;2023-05-14T08:55:23;2.65;;;2.28;;
79399;SDS011;68856;45.586;10.264;2023-05-14T08:57:50;5.40;;;1.70;;
79399;SDS011;68856;45.586;10.264;2023-05-14T09:00:38;3.00;;;2.08;;
79399;SDS011;68856;45.586;10.264;2023-05-14T09:03:06;3.10;;;2.30;;
79399;SDS011;68856;45.586;10.264;2023-05-14T09:05:32;2.60;;;2.40;;
79399;SDS011;68856;45.586;10.264;2023-05-14T09:07:59;2.35;;;2.00;;
79399;SDS011;68856;45.586;10.264;2023-05-14T09:10:25;2.22;;;1.98;;
79399;SDS011;68856;45.586;10.264;2023-05-14T09:12:52;2.22;;;2.03;;
79399;SDS011;68856;45.586;10.264;2023-05-14T09:15:18;2.75;;;2.55;;
79399;SDS011;68856;45.586;10.264;2023-05-14T09:17:45;2.92;;;2.10;;
79399;SDS011;68856;45.586;10.264;2023-05-14T09:20:12;4.35;;;2.05;;
79399;SDS011;68856;45.586;10.264;2023-05-14T09:22:39;3.42;;;2.25;;
79399;SDS011;68856;45.586;10.264;2023-05-14T09:25:07;3.13;;;2.10;;
79399;SDS011;68856;45.586;10.264;2023-05-14T09:27:36;2.22;;;2.00;;
79399;SDS011;68856;45.586;10.264;2023-05-14T09:30:03;2.25;;;1.98;;
79399;SDS011;68856;45.586;10.264;2023-05-14T09:32:39;1.88;;;1.77;;
79399;SDS011;68856;45.586;10.264;2023-05-14T09:35:24;1.90;;;1.80;;
79399;SDS011;68856;45.586;10.264;2023-05-14T09:37:51;2.00;;;1.58;;
79399;SDS011;68856;45.586;10.264;2023-05-14T09:40:19;1.15;;;0.98;;
79399;SDS011;68856;45.586;10.264;2023-05-14T09:42:47;2.13;;;1.40;;
79399;SDS011;68856;45.586;10.264;2023-05-14T09:45:14;2.50;;;1.45;;
79399;SDS011;68856;45.586;10.264;2023-05-14T09:47:40;2.55;;;1.20;;
79399;SDS011;68856;45.586;10.264;2023-05-14T09:50:07;1.60;;;1.30;;
79399;SDS011;68856;45.586;10.264;2023-05-14T09:52:34;1.58;;;1.45;;
79399;SDS011;68856;45.586;10.264;2023-05-14T09:55:01;0.88;;;0.88;;
79399;SDS011;68856;45.586;10.264;2023-05-14T09:57:28;1.23;;;1.20;;
79399;SDS011;68856;45.586;10.264;2023-05-14T09:59:54;1.20;;;1.20;;
79399;SDS011;68856;45.586;10.264;2023-05-14T10:02:24;1.42;;;1.20;;
79399;SDS011;68856;45.586;10.264;2023-05-14T10:04:54;1.60;;;1.50;;
79399;SDS011;68856;45.586;10.264;2023-05-14T10:09:53;1.33;;;1.23;;
79399;SDS011;68856;45.586;10.264;2023-05-14T10:12:23;2.13;;;1.98;;
79399;SDS011;68856;45.586;10.264;2023-05-14T10:14:53;1.93;;;1.83;;
79399;SDS011;68856;45.586;10.264;2023-05-14T10:17:21;2.97;;;2.40;;
79399;SDS011;68856;45.586;10.264;2023-05-14T10:19:53;3.58;;;2.95;;
79399;SDS011;68856;45.586;10.264;2023-05-14T10:22:25;2.50;;;2.20;;
79399;SDS011;68856;45.586;10.264;2023-05-14T10:24:55;2.30;;;1.88;;
79399;SDS011;68856;45.586;10.264;2023-05-14T10:27:22;2.25;;;2.03;;
79399;SDS011;68856;45.586;10.264;2023-05-14T10:29:52;2.88;;;2.55;;
79399;SDS011;68856;45.586;10.264;2023-05-14T10:32:23;2.50;;;2.30;;
79399;SDS011;68856;45.586;10.264;2023-05-14T10:37:19;2.80;;;2.35;;
79399;SDS011;68856;45.586;10.264;2023-05-14T10:44:47;2.78;;;2.58;;
79399;SDS011;68856;45.586;10.264;2023-05-14T10:47:25;3.72;;;2.78;;
79399;SDS011;68856;45.586;10.264;2023-05-14T10:49:56;2.13;;;1.90;;
79399;SDS011;68856;45.586;10.264;2023-05-14T10:52:23;1.63;;;1.52;;
79399;SDS011;68856;45.586;10.264;2023-05-14T10:54:57;1.25;;;1.15;;
79399;SDS011;68856;45.586;10.264;2023-05-14T10:57:25;1.13;;;1.08;;
79399;SDS011;68856;45.586;10.264;2023-05-14T10:59:54;1.63;;;1.10;;
79399;SDS011;68856;45.586;10.264;2023-05-14T11:02:29;3.10;;;1.00;;
79399;SDS011;68856;45.586;10.264;2023-05-14T11:05:00;2.08;;;1.25;;
79399;SDS011;68856;45.586;10.264;2023-05-14T11:10:07;2.83;;;1.55;;
79399;SDS011;68856;45.586;10.264;2023-05-14T11:12:39;1.67;;;1.40;;
79399;SDS011;68856;45.586;10.264;2023-05-14T11:15:07;3.08;;;1.60;;
79399;SDS011;68856;45.586;10.264;2023-05-14T11:17:35;1.40;;;1.35;;
79399;SDS011;68856;45.586;10.264;2023-05-14T11:20:03;2.55;;;1.52;;
79399;SDS011;68856;45.586;10.264;2023-05-14T11:22:30;2.53;;;2.33;;
79399;SDS011;68856;45.586;10.264;2023-05-14T11:24:57;2.25;;;1.92;;
79399;SDS011;68856;45.586;10.264;2023-05-14T11:27:23;2.13;;;1.80;;
79399;SDS011;68856;45.586;10.264;2023-05-14T11:29:50;2.58;;;1.75;;
79399;SDS011;68856;45.586;10.264;2023-05-14T11:32:18;2.00;;;1.80;;
79399;SDS011;68856;45.586;10.264;2023-05-14T11:34:45;1.98;;;1.60;;
79399;SDS011;68856;45.586;10.264;2023-05-14T11:37:12;1.58;;;1.48;;
79399;SDS011;68856;45.586;10.264;2023-05-14T11:39:45;1.50;;;1.40;;
79399;SDS011;68856;45.586;10.264;2023-05-14T11:42:16;1.38;;;1.27;;
79399;SDS011;68856;45.586;10.264;2023-05-14T11:44:45;2.17;;;1.55;;
79399;SDS011;68856;45.586;10.264;2023-05-14T11:47:13;1.50;;;1.40;;
79399;SDS011;68856;45.586;10.264;2023-05-14T11:49:41;1.73;;;1.63;;
79399;SDS011;68856;45.586;10.264;2023-05-14T11:52:08;2.33;;;1.40;;
79399;SDS011;68856;45.586;10.264;2023-05-14T11:54:36;2.25;;;1.90;;
79399;SDS011;68856;45.586;10.264;2023-05-14T11:57:14;1.65;;;1.55;;
79399;SDS011;68856;45.586;10.264;2023-05-14T11:59:42;4.28;;;1.88;;
79399;SDS011;68856;45.586;10.264;2023-05-14T12:02:09;3.55;;;3.03;;
79399;SDS011;68856;45.586;10.264;2023-05-14T12:04:37;3.58;;;2.88;;
79399;SDS011;68856;45.586;10.264;2023-05-14T12:07:12;4.10;;;3.00;;
79399;SDS011;68856;45.586;10.264;2023-05-14T12:09:46;4.53;;;3.05;;
79399;SDS011;68856;45.586;10.264;2023-05-14T12:12:14;4.47;;;3.30;;
79399;SDS011;68856;45.586;10.264;2023-05-14T12:14:45;3.22;;;2.92;;
79399;SDS011;68856;45.586;10.264;2023-05-14T12:17:13;5.43;;;4.05;;
79399;SDS011;68856;45.586;10.264;2023-05-14T12:19:41;2.88;;;2.67;;
79399;SDS011;68856;45.586;10.264;2023-05-14T12:22:12;2.90;;;2.70;;
79399;SDS011;68856;45.586;10.264;2023-05-14T12:24:41;3.20;;;2.90;;
79399;SDS011;68856;45.586;10.264;2023-05-14T12:27:16;3.78;;;3.05;;
79399;SDS011;68856;45.586;10.264;2023-05-14T12:29:46;3.40;;;3.20;;
79399;SDS011;68856;45.586;10.264;2023-05-14T12:32:13;3.97;;;2.90;;
79399;SDS011;68856;45.586;10.264;2023-05-14T12:34:39;3.55;;;2.95;;
79399;SDS011;68856;45.586;10.264;2023-05-14T12:37:05;3.42;;;3.13;;
79399;SDS011;68856;45.586;10.264;2023-05-14T12:39:32;3.63;;;3.33;;
79399;SDS011;68856;45.586;10.264;2023-05-14T12:41:59;2.95;;;2.75;;
79399;SDS011;68856;45.586;10.264;2023-05-14T12:44:26;3.10;;;2.80;;
79399;SDS011;68856;45.586;10.264;2023-05-14T12:46:52;3.65;;;3.35;;
79399;SDS011;68856;45.586;10.264;2023-05-14T12:49:19;3.30;;;3.08;;
79399;SDS011;68856;45.586;10.264;2023-05-14T12:51:45;4.18;;;3.85;;
79399;SDS011;68856;45.586;10.264;2023-05-14T12:54:11;4.15;;;3.75;;
79399;SDS011;68856;45.586;10.264;2023-05-14T12:56:39;3.88;;;3.22;;
79399;SDS011;68856;45.586;10.264;2023-05-14T12:59:06;3.63;;;3.33;;
79399;SDS011;68856;45.586;10.264;2023-05-14T13:01:33;2.50;;;2.30;;
79399;SDS011;68856;45.586;10.264;2023-05-14T13:03:59;3.53;;;3.22;;
79399;SDS011;68856;45.586;10.264;2023-05-14T13:06:26;3.55;;;3.25;;
79399;SDS011;68856;45.586;10.264;2023-05-14T13:08:52;3.22;;;2.92;;
79399;SDS011;68856;45.586;10.264;2023-05-14T13:11:19;3.13;;;2.83;;
79399;SDS011;68856;45.586;10.264;2023-05-14T13:13:45;3.13;;;2.92;;
79399;SDS011;68856;45.586;10.264;2023-05-14T13:16:11;3.42;;;2.63;;
79399;SDS011;68856;45.586;10.264;2023-05-14T13:18:40;3.50;;;3.20;;
79399;SDS011;68856;45.586;10.264;2023-05-14T13:21:07;3.40;;;2.90;;
79399;SDS011;68856;45.586;10.264;2023-05-14T13:23:33;3.20;;;3.00;;
79399;SDS011;68856;45.586;10.264;2023-05-14T13:25:59;3.22;;;2.92;;
79399;SDS011;68856;45.586;10.264;2023-05-14T13:28:26;4.75;;;2.85;;
79399;SDS011;68856;45.586;10.264;2023-05-14T13:31:11;3.05;;;2.63;;
79399;SDS011;68856;45.586;10.264;2023-05-14T13:33:42;4.03;;;3.03;;
79399;SDS011;68856;45.586;10.264;2023-05-14T13:36:09;2.90;;;2.70;;
79399;SDS011;68856;45.586;10.264;2023-05-14T13:38:37;3.47;;;3.17;;
79399;SDS011;68856;45.586;10.264;2023-05-14T13:41:04;3.90;;;3.50;;
79399;SDS011;68856;45.586;10.264;2023-05-14T13:43:31;5.57;;;3.50;;
79399;SDS011;68856;45.586;10.264;2023-05-14T13:45:58;4.25;;;3.45;;
79399;SDS011;68856;45.586;10.264;2023-05-14T13:48:25;3.80;;;3.50;;
79399;SDS011;68856;45.586;10.264;2023-05-14T13:50:52;3.90;;;3.40;;
79399;SDS011;68856;45.586;10.264;2023-05-14T13:53:19;4.05;;;3.65;;
79399;SDS011;68856;45.586;10.264;2023-05-14T13:55:46;4.53;;;4.13;;
79399;SDS011;68856;45.586;10.264;2023-05-14T13:58:13;4.50;;;4.10;;
79399;SDS011;68856;45.586;10.264;2023-05-14T14:00:40;5.20;;;4.80;;
79399;SDS011;68856;45.586;10.264;2023-05-14T14:03:06;4.00;;;3.70;;
79399;SDS011;68856;45.586;10.264;2023-05-14T14:05:36;5.38;;;4.03;;
79399;SDS011;68856;45.586;10.264;2023-05-14T14:08:02;4.70;;;3.88;;
79399;SDS011;68856;45.586;10.264;2023-05-14T14:10:28;4.38;;;3.95;;
79399;SDS011;68856;45.586;10.264;2023-05-14T14:12:55;5.75;;;4.47;;
79399;SDS011;68856;45.586;10.264;2023-05-14T14:15:21;5.28;;;4.05;;
79399;SDS011;68856;45.586;10.264;2023-05-14T14:17:47;4.20;;;3.90;;
79399;SDS011;68856;45.586;10.264;2023-05-14T14:20:14;5.32;;;4.43;;
79399;SDS011;68856;45.586;10.264;2023-05-14T14:22:41;4.30;;;3.88;;
79399;SDS011;68856;45.586;10.264;2023-05-14T14:25:11;5.25;;;3.90;;
79399;SDS011;68856;45.586;10.264;2023-05-14T14:27:38;4.40;;;3.88;;
79399;SDS011;68856;45.586;10.264;2023-05-14T14:30:06;5.25;;;4.30;;
79399;SDS011;68856;45.586;10.264;2023-05-14T14:32:34;5.05;;;4.50;;
79399;SDS011;68856;45.586;10.264;2023-05-14T14:35:00;5.00;;;4.57;;
79399;SDS011;68856;45.586;10.264;2023-05-14T14:37:27;5.00;;;4.50;;
79399;SDS011;68856;45.586;10.264;2023-05-14T14:39:53;5.20;;;4.70;;
79399;SDS011;68856;45.586;10.264;2023-05-14T14:42:19;5.47;;;4.95;;
79399;SDS011;68856;45.586;10.264;2023-05-14T14:44:45;5.72;;;4.85;;
79399;SDS011;68856;45.586;10.264;2023-05-14T14:47:12;5.30;;;4.80;;
79399;SDS011;68856;45.586;10.264;2023-05-14T14:49:38;5.80;;;4.93;;
79399;SDS011;68856;45.586;10.264;2023-05-14T14:52:04;7.30;;;4.82;;
79399;SDS011;68856;45.586;10.264;2023-05-14T14:54:30;7.88;;;5.00;;